Time;durP1;ratioP1;P1;durP2;ratioP2;P2;SDS_P1;SDS_P2;PMS_P1;PMS_P2;Temp;Humidity;BMP_temperature;BMP_pressure;BME280_temperature;BME280_humidity;BME280_pressure;Samples;Min_cycle;Max_cycle;Signal;HPM_P1;HPM_P2
2023/06/11 00:01:23;;;;;;;10.00;3.90;;;22.10;93.60;;;;;;5055377;28;20041;-60
2023/06/11 00:03:52;;;;;;;12.35;3.97;;;22.10;93.60;;;;;;5054642;28;20344;-59
2023/06/11 00:06:20;;;;;;;9.05;3.33;;;22.10;93.70;;;;;;5053438;28;20418;-59
2023/06/11 00:08:46;;;;;;;10.18;3.72;;;22.10;93.60;;;;;;5054612;28;20047;-61
2023/06/11 00:11:12;;;;;;;12.23;3.58;;;22.10;93.80;;;;;;5055262;28;20059;-61
2023/06/11 00:13:38;;;;;;;6.85;3.90;;;22.10;93.60;;;;;;5054532;28;20037;-59
2023/06/11 00:16:04;;;;;;;10.50;3.78;;;22.00;93.60;;;;;;5053542;28;20039;-60
2023/06/11 00:18:30;;;;;;;6.63;3.88;;;22.00;93.60;;;;;;5054678;28;20049;-60
2023/06/11 00:20:58;;;;;;;6.45;3.30;;;22.00;93.70;;;;;;5053820;28;20032;-58
2023/06/11 00:23:24;;;;;;;9.02;4.30;;;22.00;93.70;;;;;;5054542;28;20043;-59
2023/06/11 00:25:52;;;;;;;7.90;3.80;;;21.90;93.80;;;;;;5055242;28;20135;-59
2023/06/11 00:28:19;;;;;;;7.45;4.10;;;21.90;94.00;;;;;;5054923;28;20040;-61
2023/06/11 00:30:44;;;;;;;8.77;4.07;;;21.80;93.80;;;;;;5054132;28;20044;-60
2023/06/11 00:33:10;;;;;;;9.40;4.03;;;21.70;93.80;;;;;;5054567;28;20044;-61
2023/06/11 00:35:37;;;;;;;10.90;4.38;;;21.60;94.00;;;;;;5053381;28;20123;-61
2023/06/11 00:38:03;;;;;;;7.93;4.22;;;21.50;93.90;;;;;;5054537;28;20036;-60
2023/06/11 00:40:31;;;;;;;10.00;4.60;;;21.50;93.90;;;;;;5051924;28;20093;-60
2023/06/11 00:42:57;;;;;;;8.10;4.20;;;21.50;94.00;;;;;;5055018;28;20029;-61
2023/06/11 00:45:24;;;;;;;9.20;4.20;;;21.50;94.00;;;;;;5054804;28;20059;-59
2023/06/11 00:47:50;;;;;;;8.35;4.38;;;21.40;94.10;;;;;;5054669;28;20032;-59
2023/06/11 00:50:15;;;;;;;10.23;4.50;;;21.40;94.20;;;;;;5031514;28;20035;-59
2023/06/11 00:52:42;;;;;;;7.40;4.55;;;21.30;94.10;;;;;;5054034;28;20089;-61
2023/06/11 00:55:08;;;;;;;9.50;5.00;;;21.30;94.20;;;;;;5054054;28;20055;-60
2023/06/11 00:57:35;;;;;;;7.72;4.63;;;21.20;94.30;;;;;;5053949;28;20099;-60
2023/06/11 01:00:03;;;;;;;10.23;4.75;;;21.20;94.40;;;;;;5055050;28;20060;-62
2023/06/11 01:02:32;;;;;;;9.30;4.50;;;21.20;94.40;;;;;;5034800;28;20515;-60
2023/06/11 01:05:01;;;;;;;10.00;5.25;;;21.20;94.30;;;;;;5054148;28;20408;-60
2023/06/11 01:07:34;;;;;;;9.57;5.03;;;21.10;94.30;;;;;;5052843;28;20045;-59
2023/06/11 01:10:00;;;;;;;11.65;6.03;;;21.10;94.30;;;;;;5054501;28;20051;-60
2023/06/11 01:12:25;;;;;;;9.30;5.22;;;21.00;94.30;;;;;;5054972;28;20166;-59
2023/06/11 01:14:52;;;;;;;8.02;5.18;;;21.00;94.30;;;;;;5054748;28;20040;-61
2023/06/11 01:17:40;;;;;;;12.13;5.82;;;21.00;94.30;;;;;;5054756;28;20033;-61
2023/06/11 01:20:13;;;;;;;9.38;6.00;;;21.00;94.30;;;;;;5054595;28;20044;-61
2023/06/11 01:23:09;;;;;;;9.60;6.18;;;21.00;94.30;;;;;;5054453;28;20029;-61
2023/06/11 01:26:01;;;;;;;8.27;5.55;;;21.00;94.40;;;;;;5052182;28;20041;-61
2023/06/11 01:28:31;;;;;;;10.13;6.18;;;20.90;94.30;;;;;;5054332;28;20053;-61
2023/06/11 01:30:59;;;;;;;12.00;6.07;;;20.90;94.40;;;;;;5033457;28;20047;-61
2023/06/11 01:33:26;;;;;;;8.35;6.25;;;20.80;94.40;;;;;;5053580;28;20040;-61
2023/06/11 01:35:58;;;;;;;11.07;6.65;;;20.90;94.40;;;;;;5053724;28;20041;-61
2023/06/11 01:38:30;;;;;;;9.95;6.50;;;20.80;94.40;;;;;;5052814;28;20175;-62
2023/06/11 01:40:58;;;;;;;10.00;6.28;;;20.80;94.40;;;;;;5052676;28;20526;-59
2023/06/11 01:43:25;;;;;;;9.45;6.68;;;20.80;94.50;;;;;;5053391;28;20028;-59
2023/06/11 01:45:51;;;;;;;9.38;6.10;;;20.80;94.50;;;;;;5034424;28;20055;-59
2023/06/11 01:48:17;;;;;;;8.95;6.70;;;20.80;94.60;;;;;;5019119;28;20032;-60
2023/06/11 01:50:43;;;;;;;10.38;6.90;;;20.80;94.70;;;;;;5054791;28;20841;-60
2023/06/11 01:53:10;;;;;;;10.88;6.90;;;20.70;94.70;;;;;;5054121;28;20037;-61
2023/06/11 01:55:36;;;;;;;8.63;6.95;;;20.80;94.70;;;;;;5054167;28;20377;-59
2023/06/11 01:58:02;;;;;;;11.63;7.22;;;20.70;94.70;;;;;;5057184;28;20048;-60
2023/06/11 02:00:28;;;;;;;9.60;7.15;;;20.70;94.90;;;;;;5056028;28;20056;-59
2023/06/11 02:02:54;;;;;;;9.10;7.05;;;20.60;94.90;;;;;;5056478;28;20040;-61
2023/06/11 02:05:20;;;;;;;10.27;7.43;;;20.60;94.90;;;;;;5056046;28;20047;-60
2023/06/11 02:07:45;;;;;;;9.70;7.47;;;20.60;94.90;;;;;;5057485;28;20414;-59
2023/06/11 02:10:11;;;;;;;11.18;8.10;;;20.50;95.00;;;;;;5056532;28;20034;-61
2023/06/11 02:12:37;;;;;;;9.80;7.53;;;20.50;95.10;;;;;;5036280;28;20040;-60
2023/06/11 02:15:06;;;;;;;12.27;7.88;;;20.40;95.20;;;;;;5054549;28;20396;-60
2023/06/11 02:17:32;;;;;;;11.02;7.45;;;20.40;95.40;;;;;;5057089;28;20131;-59
2023/06/11 02:19:58;;;;;;;9.20;7.80;;;20.30;95.40;;;;;;5057446;28;20166;-59
2023/06/11 02:22:23;;;;;;;10.52;8.05;;;20.30;95.40;;;;;;5055745;28;20028;-60
2023/06/11 02:24:49;;;;;;;12.88;8.20;;;20.30;95.60;;;;;;5035980;28;20058;-60
2023/06/11 02:27:15;;;;;;;10.57;7.60;;;20.20;95.60;;;;;;5056697;28;20190;-61
2023/06/11 02:29:41;;;;;;;11.77;7.32;;;20.20;95.60;;;;;;5036721;28;20048;-62
2023/06/11 02:32:07;;;;;;;12.65;8.23;;;20.20;95.70;;;;;;5057480;28;20429;-60
2023/06/11 02:34:32;;;;;;;10.93;7.82;;;20.10;95.70;;;;;;5057580;28;20145;-61
2023/06/11 02:36:58;;;;;;;9.95;7.10;;;20.10;95.80;;;;;;5056786;28;21805;-59
2023/06/11 02:39:24;;;;;;;11.63;7.57;;;20.10;95.90;;;;;;5036173;28;20052;-59
2023/06/11 02:41:50;;;;;;;11.73;8.02;;;20.10;96.00;;;;;;5057200;28;20085;-60
2023/06/11 02:44:15;;;;;;;9.73;7.68;;;20.00;96.00;;;;;;5055913;28;20024;-61
2023/06/11 02:46:41;;;;;;;11.07;7.63;;;20.00;96.00;;;;;;5056616;28;20503;-61
2023/06/11 02:49:07;;;;;;;11.07;7.55;;;20.00;96.10;;;;;;5056491;28;20028;-60
2023/06/11 02:51:33;;;;;;;10.95;7.50;;;19.90;96.10;;;;;;5035806;28;20040;-61
2023/06/11 02:53:58;;;;;;;10.65;7.85;;;19.90;96.10;;;;;;5055005;28;20072;-60
2023/06/11 02:56:24;;;;;;;9.98;7.70;;;19.90;96.10;;;;;;5056469;28;20060;-60
2023/06/11 02:58:50;;;;;;;10.05;7.15;;;19.90;96.20;;;;;;5056684;28;20384;-61
2023/06/11 03:01:15;;;;;;;10.45;7.28;;;19.90;96.20;;;;;;5056374;28;20037;-60
2023/06/11 03:03:41;;;;;;;8.57;7.28;;;19.80;96.30;;;;;;5056553;28;20724;-59
2023/06/11 03:06:08;;;;;;;9.27;7.75;;;19.90;96.40;;;;;;5057412;28;20032;-60
2023/06/11 03:08:33;;;;;;;9.38;7.30;;;19.80;96.40;;;;;;5055212;28;20101;-59
2023/06/11 03:10:59;;;;;;;9.82;7.75;;;19.80;96.50;;;;;;5055871;28;20654;-59
2023/06/11 03:13:25;;;;;;;9.63;7.45;;;19.80;96.50;;;;;;5056989;28;20271;-60
2023/06/11 03:15:50;;;;;;;11.32;7.55;;;19.80;96.50;;;;;;5055447;28;20075;-60
2023/06/11 03:18:16;;;;;;;11.27;7.70;;;19.70;96.60;;;;;;5035440;28;20153;-60
2023/06/11 03:20:43;;;;;;;9.98;7.53;;;19.70;96.60;;;;;;5035929;28;20060;-60
2023/06/11 03:23:10;;;;;;;9.15;7.18;;;19.70;96.60;;;;;;5055984;28;20119;-60
2023/06/11 03:25:36;;;;;;;9.38;7.75;;;19.70;96.70;;;;;;5056385;28;20045;-59
2023/06/11 03:28:02;;;;;;;9.95;7.50;;;19.70;96.70;;;;;;5055983;28;20052;-60
2023/06/11 03:30:28;;;;;;;12.30;7.15;;;19.60;96.70;;;;;;5055754;28;20522;-59
2023/06/11 03:32:54;;;;;;;9.95;7.30;;;19.60;96.80;;;;;;5055695;28;20068;-60
2023/06/11 03:35:20;;;;;;;9.60;7.53;;;19.60;96.80;;;;;;5055677;28;22243;-59
2023/06/11 03:37:45;;;;;;;9.25;7.25;;;19.60;96.80;;;;;;5054633;28;20102;-59
2023/06/11 03:40:11;;;;;;;8.75;7.82;;;19.60;96.90;;;;;;5054188;28;20119;-60
2023/06/11 03:42:37;;;;;;;11.00;7.90;;;19.60;96.90;;;;;;5035699;28;20052;-59
2023/06/11 03:45:03;;;;;;;8.73;7.32;;;19.60;97.00;;;;;;5055439;28;20442;-60
2023/06/11 03:47:28;;;;;;;9.35;7.75;;;19.60;97.00;;;;;;5038307;28;20415;-61
2023/06/11 03:49:54;;;;;;;9.38;7.72;;;19.50;97.00;;;;;;5053860;28;20452;-61
2023/06/11 03:52:20;;;;;;;10.65;7.70;;;19.50;97.00;;;;;;5054717;28;20424;-60
2023/06/11 03:54:46;;;;;;;8.95;7.65;;;19.50;97.10;;;;;;5055258;28;20041;-60
2023/06/11 03:57:12;;;;;;;9.95;7.45;;;19.50;97.10;;;;;;5054925;28;20082;-60
2023/06/11 03:59:38;;;;;;;8.45;7.30;;;19.50;97.20;;;;;;5054870;28;20526;-60
2023/06/11 04:02:04;;;;;;;11.05;8.13;;;19.40;97.20;;;;;;5054719;28;20051;-59
2023/06/11 04:04:32;;;;;;;8.38;6.97;;;19.50;97.30;;;;;;5055268;28;20043;-61
2023/06/11 04:06:58;;;;;;;10.70;7.78;;;19.50;97.30;;;;;;5054479;28;20396;-60
2023/06/11 04:09:24;;;;;;;8.52;6.95;;;19.50;97.70;;;;;;5055142;28;20046;-61
2023/06/11 04:11:50;;;;;;;11.60;7.80;;;19.50;97.40;;;;;;5055008;28;20051;-59
2023/06/11 04:14:15;;;;;;;11.30;7.70;;;19.40;97.50;;;;;;5054628;28;20068;-61
2023/06/11 04:16:41;;;;;;;10.52;7.97;;;19.50;97.50;;;;;;5033089;28;20032;-61
2023/06/11 04:19:07;;;;;;;11.60;7.53;;;19.50;97.60;;;;;;5054779;28;20039;-59
2023/06/11 04:21:32;;;;;;;8.68;7.45;;;19.50;97.60;;;;;;5055310;28;20078;-60
2023/06/11 04:23:58;;;;;;;10.55;7.72;;;19.50;97.60;;;;;;5051685;28;20040;-60
2023/06/11 04:26:25;;;;;;;8.90;7.75;;;19.50;97.70;;;;;;5053326;28;20033;-60
2023/06/11 04:28:52;;;;;;;11.57;7.60;;;19.60;97.70;;;;;;5053877;28;20091;-60
2023/06/11 04:31:18;;;;;;;8.43;7.55;;;19.60;97.80;;;;;;5034473;28;20068;-61
2023/06/11 04:33:46;;;;;;;8.80;7.75;;;19.60;97.80;;;;;;5055039;28;20045;-60
2023/06/11 04:36:11;;;;;;;10.23;7.35;;;19.60;97.90;;;;;;5033181;28;20072;-60
2023/06/11 04:38:38;;;;;;;13.65;8.27;;;19.60;97.90;;;;;;5034787;28;20083;-61
2023/06/11 04:41:06;;;;;;;9.05;7.80;;;19.60;97.80;;;;;;5054907;28;20060;-61
2023/06/11 04:43:33;;;;;;;12.07;8.27;;;19.60;97.90;;;;;;5054620;28;20024;-59
2023/06/11 04:46:00;;;;;;;9.27;7.57;;;19.60;98.00;;;;;;5054608;28;20036;-61
2023/06/11 04:48:31;;;;;;;10.50;7.88;;;19.60;98.00;;;;;;5054364;28;20032;-61
2023/06/11 04:50:59;;;;;;;10.63;8.13;;;19.70;98.10;;;;;;5054347;28;20532;-60
2023/06/11 04:53:27;;;;;;;12.30;8.35;;;19.70;98.10;;;;;;5015449;28;20097;-61
2023/06/11 04:55:55;;;;;;;10.48;8.48;;;19.70;98.20;;;;;;5033031;28;20104;-62
2023/06/11 04:58:25;;;;;;;10.02;7.45;;;19.70;98.20;;;;;;5054586;28;20036;-61
2023/06/11 05:00:52;;;;;;;9.38;8.00;;;19.70;98.20;;;;;;5053774;28;20081;-61
2023/06/11 05:03:19;;;;;;;10.15;8.35;;;19.70;98.30;;;;;;5054443;28;20120;-61
2023/06/11 05:05:51;;;;;;;9.18;8.10;;;19.70;98.30;;;;;;5055213;28;20391;-61
2023/06/11 05:08:18;;;;;;;11.50;8.38;;;19.80;98.40;;;;;;5053845;28;20466;-61
2023/06/11 05:10:44;;;;;;;13.07;8.48;;;19.80;98.50;;;;;;5049272;28;20032;-61
2023/06/11 05:13:14;;;;;;;10.55;8.45;;;19.80;98.50;;;;;;5053642;28;20059;-60
2023/06/11 05:15:40;;;;;;;10.55;8.43;;;19.80;98.40;;;;;;5033703;28;20040;-60
2023/06/11 05:18:06;;;;;;;9.98;8.35;;;19.90;98.30;;;;;;5052344;28;20510;-61
2023/06/11 05:20:32;;;;;;;10.80;8.02;;;19.90;98.40;;;;;;5053676;28;20060;-61
2023/06/11 05:22:58;;;;;;;11.55;8.38;;;20.00;98.40;;;;;;5053285;28;20072;-60
2023/06/11 05:25:28;;;;;;;10.77;8.48;;;20.00;98.40;;;;;;5053462;28;20028;-60
2023/06/11 05:27:57;;;;;;;8.77;7.63;;;20.00;98.30;;;;;;5053091;28;20052;-59
2023/06/11 05:30:25;;;;;;;11.15;8.30;;;20.10;98.30;;;;;;5053788;28;20440;-62
2023/06/11 05:32:55;;;;;;;11.30;8.27;;;20.10;98.30;;;;;;5036771;28;20048;-60
2023/06/11 05:35:20;;;;;;;9.55;8.35;;;20.10;98.60;;;;;;5036387;28;20033;-61
2023/06/11 05:37:47;;;;;;;11.05;8.57;;;20.10;98.20;;;;;;5056164;28;20043;-59
2023/06/11 05:40:13;;;;;;;9.68;8.30;;;20.20;98.30;;;;;;5057947;28;20040;-61
2023/06/11 05:42:39;;;;;;;10.43;8.25;;;20.20;98.30;;;;;;5056506;28;20033;-60
2023/06/11 05:45:06;;;;;;;11.68;8.70;;;20.30;98.30;;;;;;5057865;28;20029;-60
2023/06/11 05:47:34;;;;;;;9.48;8.40;;;20.30;98.30;;;;;;5035724;28;20139;-60
2023/06/11 05:50:01;;;;;;;13.50;8.63;;;20.40;98.30;;;;;;5056845;28;20063;-60
2023/06/11 05:52:27;;;;;;;11.27;8.60;;;20.40;98.20;;;;;;5055746;28;20028;-60
2023/06/11 05:54:53;;;;;;;11.88;8.15;;;20.50;98.20;;;;;;5055966;28;20039;-60
2023/06/11 05:57:24;;;;;;;11.52;8.68;;;20.50;98.20;;;;;;5057083;28;20127;-59
2023/06/11 05:59:50;;;;;;;11.52;8.55;;;20.60;98.10;;;;;;5056871;28;20050;-60
2023/06/11 06:02:16;;;;;;;11.55;8.35;;;20.60;98.20;;;;;;5056849;28;20501;-60
2023/06/11 06:04:46;;;;;;;11.60;8.45;;;20.70;98.20;;;;;;5057631;28;20037;-61
2023/06/11 06:07:11;;;;;;;12.30;8.60;;;20.70;98.20;;;;;;5039800;28;20490;-61
2023/06/11 06:09:37;;;;;;;12.57;8.52;;;20.80;98.10;;;;;;5056822;28;20032;-60
2023/06/11 06:12:03;;;;;;;12.50;9.20;;;20.80;98.20;;;;;;5057609;28;20041;-60
2023/06/11 06:14:28;;;;;;;9.63;8.32;;;20.90;98.10;;;;;;5056818;28;20135;-60
2023/06/11 06:16:54;;;;;;;10.02;8.27;;;20.90;98.00;;;;;;5057021;28;20060;-62
2023/06/11 06:19:20;;;;;;;11.13;8.65;;;21.00;97.80;;;;;;5037614;28;20121;-60
2023/06/11 06:21:45;;;;;;;10.10;9.00;;;21.00;97.80;;;;;;5055958;28;20126;-62
2023/06/11 06:24:11;;;;;;;9.60;8.38;;;21.00;97.90;;;;;;5053674;28;20036;-60
2023/06/11 06:26:40;;;;;;;10.75;8.55;;;21.10;98.00;;;;;;5034562;28;20086;-61
2023/06/11 06:29:09;;;;;;;10.57;8.85;;;21.10;98.00;;;;;;5056312;28;20071;-61
2023/06/11 06:31:36;;;;;;;12.75;8.40;;;21.20;97.90;;;;;;5056606;28;20043;-60
2023/06/11 06:34:03;;;;;;;14.88;8.82;;;21.20;97.90;;;;;;5035951;28;20047;-62
2023/06/11 06:36:29;;;;;;;10.57;8.77;;;21.20;98.00;;;;;;5055993;28;20039;-62
2023/06/11 06:38:54;;;;;;;10.38;7.72;;;21.30;98.00;;;;;;5057301;28;20402;-61
2023/06/11 06:41:20;;;;;;;9.32;8.13;;;21.30;98.00;;;;;;5055453;28;20040;-60
2023/06/11 06:43:46;;;;;;;11.23;8.35;;;21.40;98.00;;;;;;5054449;28;20028;-60
2023/06/11 06:46:12;;;;;;;10.35;8.60;;;21.50;98.00;;;;;;5056555;28;20085;-60
2023/06/11 06:48:38;;;;;;;9.18;8.27;;;21.60;98.00;;;;;;5057098;28;20041;-61
2023/06/11 06:51:03;;;;;;;10.43;8.15;;;21.60;97.90;;;;;;5056463;28;20510;-61
2023/06/11 06:53:29;;;;;;;9.65;8.00;;;21.70;97.90;;;;;;5055145;28;20479;-61
2023/06/11 06:55:55;;;;;;;9.20;7.80;;;21.70;97.90;;;;;;5055634;28;20460;-61
2023/06/11 06:58:20;;;;;;;10.73;8.63;;;21.80;97.90;;;;;;5056571;28;20048;-60
2023/06/11 07:00:46;;;;;;;10.55;8.07;;;21.90;97.80;;;;;;5052213;28;20145;-61
2023/06/11 07:03:13;;;;;;;8.88;7.72;;;22.00;97.70;;;;;;5056313;28;20029;-60
2023/06/11 07:05:40;;;;;;;11.20;8.30;;;22.00;97.60;;;;;;5056281;28;20105;-60
2023/06/11 07:08:05;;;;;;;13.35;8.13;;;22.10;97.60;;;;;;5054707;28;20044;-60
2023/06/11 07:10:31;;;;;;;10.15;7.47;;;22.20;97.60;;;;;;5056657;28;20139;-60
2023/06/11 07:12:57;;;;;;;9.15;7.57;;;22.20;97.70;;;;;;5054796;28;20044;-60
2023/06/11 07:15:23;;;;;;;11.27;8.05;;;22.30;97.60;;;;;;5055808;28;20040;-60
2023/06/11 07:17:48;;;;;;;8.45;7.55;;;22.40;97.60;;;;;;5055293;28;20045;-62
2023/06/11 07:20:14;;;;;;;9.20;7.47;;;22.50;97.50;;;;;;5053801;28;20032;-59
2023/06/11 07:22:40;;;;;;;9.07;7.32;;;22.50;97.50;;;;;;5055409;28;20044;-62
2023/06/11 07:25:06;;;;;;;10.85;8.25;;;22.60;97.50;;;;;;5053177;28;20086;-60
2023/06/11 07:27:32;;;;;;;9.32;7.72;;;22.70;97.50;;;;;;5053318;28;20040;-61
2023/06/11 07:29:58;;;;;;;11.30;6.90;;;22.80;97.30;;;;;;5055247;28;20036;-62
2023/06/11 07:32:23;;;;;;;11.15;7.20;;;22.80;97.40;;;;;;5055903;28;20082;-60
2023/06/11 07:34:49;;;;;;;12.05;7.57;;;22.90;97.20;;;;;;5035778;28;20046;-61
2023/06/11 07:37:15;;;;;;;8.93;6.72;;;23.10;97.20;;;;;;5054402;28;20074;-61
2023/06/11 07:39:40;;;;;;;10.77;7.28;;;23.10;97.20;;;;;;5054299;28;20624;-59
2023/06/11 07:42:07;;;;;;;8.60;7.05;;;23.20;97.00;;;;;;5058625;28;20055;-60
2023/06/11 07:44:32;;;;;;;9.50;6.82;;;23.30;97.10;;;;;;5058217;28;20067;-60
2023/06/11 07:46:58;;;;;;;8.07;6.47;;;23.40;97.10;;;;;;5062082;28;20033;-59
2023/06/11 07:49:24;;;;;;;9.30;6.70;;;23.40;96.80;;;;;;5043745;28;20423;-61
2023/06/11 07:51:50;;;;;;;8.93;6.70;;;23.50;96.50;;;;;;5061540;28;20081;-61
2023/06/11 07:54:16;;;;;;;9.32;6.57;;;23.60;96.50;;;;;;5060955;28;20037;-60
2023/06/11 07:56:41;;;;;;;8.50;6.65;;;23.70;96.40;;;;;;5043391;28;20091;-60
2023/06/11 07:59:07;;;;;;;8.82;6.65;;;23.80;96.30;;;;;;5043006;28;20389;-60
2023/06/11 08:01:33;;;;;;;11.13;7.05;;;23.80;96.20;;;;;;5060897;28;20041;-60
2023/06/11 08:03:58;;;;;;;9.32;6.47;;;23.90;96.10;;;;;;5061777;28;20032;-60
2023/06/11 08:06:24;;;;;;;10.68;6.85;;;24.00;96.10;;;;;;5061942;28;20502;-59
2023/06/11 08:08:50;;;;;;;8.25;6.60;;;24.10;96.40;;;;;;5061514;28;20028;-60
2023/06/11 08:11:16;;;;;;;10.43;6.70;;;24.20;96.10;;;;;;5061263;28;20032;-60
2023/06/11 08:13:42;;;;;;;7.82;6.38;;;24.20;95.90;;;;;;5059362;28;20063;-59
2023/06/11 08:16:08;;;;;;;7.20;6.25;;;24.20;95.90;;;;;;5059156;28;20035;-61
2023/06/11 08:18:34;;;;;;;7.45;6.45;;;24.20;95.80;;;;;;5041592;28;20059;-59
2023/06/11 08:21:00;;;;;;;8.05;6.28;;;24.30;95.70;;;;;;5060310;28;20506;-59
2023/06/11 08:23:26;;;;;;;8.23;6.63;;;24.40;95.70;;;;;;5061585;28;20048;-59
2023/06/11 08:25:52;;;;;;;8.32;6.43;;;24.50;95.80;;;;;;5062080;28;20025;-61
2023/06/11 08:28:20;;;;;;;8.80;6.72;;;24.60;95.50;;;;;;5062648;28;20113;-58
2023/06/11 08:30:45;;;;;;;10.40;6.32;;;24.60;95.30;;;;;;5061310;28;20056;-58
2023/06/11 08:33:11;;;;;;;7.32;5.95;;;24.70;95.80;;;;;;5061847;28;20127;-60
2023/06/11 08:35:37;;;;;;;10.00;6.10;;;24.80;95.50;;;;;;5063190;28;20155;-61
2023/06/11 08:38:03;;;;;;;8.80;6.32;;;24.90;95.00;;;;;;5063506;28;20405;-61
2023/06/11 08:40:29;;;;;;;9.90;6.63;;;24.90;95.00;;;;;;5062421;28;20044;-61
2023/06/11 08:42:55;;;;;;;9.98;6.03;;;25.00;95.00;;;;;;5059716;28;20458;-58
2023/06/11 08:45:21;;;;;;;8.98;6.55;;;25.00;94.90;;;;;;5060461;28;20120;-61
2023/06/11 08:47:50;;;;;;;8.98;6.28;;;25.10;94.80;;;;;;5062613;28;20033;-60
2023/06/11 08:50:20;;;;;;;9.57;6.25;;;25.20;95.00;;;;;;5043102;28;20098;-60
2023/06/11 08:52:51;;;;;;;7.38;6.50;;;25.30;95.10;;;;;;5063758;28;20037;-61
2023/06/11 08:55:17;;;;;;;8.95;6.15;;;25.30;94.70;;;;;;5042746;28;20098;-61
2023/06/11 08:57:43;;;;;;;7.97;6.30;;;25.50;94.80;;;;;;5062593;28;20041;-59
2023/06/11 09:00:10;;;;;;;7.63;6.00;;;25.60;94.60;;;;;;5062150;28;20123;-59
2023/06/11 09:02:36;;;;;;;7.03;6.05;;;25.70;94.70;;;;;;5063328;28;20586;-60
2023/06/11 09:05:05;;;;;;;8.30;5.85;;;25.80;94.50;;;;;;5064327;28;20055;-61
2023/06/11 09:07:30;;;;;;;9.05;6.10;;;26.00;94.40;;;;;;5068617;28;20063;-60
2023/06/11 09:10:07;;;;;;;7.80;5.90;;;26.00;94.20;;;;;;5068119;28;20040;-61
2023/06/11 09:12:33;;;;;;;8.77;6.40;;;26.20;94.20;;;;;;5067865;28;20565;-61
2023/06/11 09:14:59;;;;;;;6.68;5.60;;;26.30;94.10;;;;;;5065931;28;20072;-59
2023/06/11 09:17:33;;;;;;;7.57;5.80;;;26.50;94.00;;;;;;5065420;28;22033;-59
2023/06/11 09:20:06;;;;;;;7.45;5.60;;;26.70;93.80;;;;;;5057089;28;20029;-60
2023/06/11 09:22:34;;;;;;;8.00;6.03;;;26.80;93.50;;;;;;5074009;28;20037;-60
2023/06/11 09:25:09;;;;;;;8.73;5.88;;;27.00;93.40;;;;;;5073218;28;20036;-60
2023/06/11 09:27:39;;;;;;;8.10;5.82;;;27.20;93.00;;;;;;5071180;28;20818;-60
2023/06/11 09:30:12;;;;;;;9.40;5.65;;;27.40;92.90;;;;;;5056538;28;20044;-61
2023/06/11 09:32:42;;;;;;;8.40;6.00;;;27.50;92.70;;;;;;5076257;28;20043;-61
2023/06/11 09:35:09;;;;;;;8.52;5.97;;;27.60;92.50;;;;;;5068387;28;20069;-60
2023/06/11 09:37:46;;;;;;;8.90;5.90;;;27.80;92.60;;;;;;5075057;28;20029;-60
2023/06/11 09:40:18;;;;;;;7.72;5.43;;;27.90;92.80;;;;;;5053859;28;20036;-59
2023/06/11 09:42:45;;;;;;;7.40;5.55;;;28.00;92.50;;;;;;5060204;28;20452;-62
2023/06/11 09:45:13;;;;;;;8.38;6.00;;;28.20;92.00;;;;;;5060465;28;20507;-60
2023/06/11 09:47:39;;;;;;;6.88;5.50;;;28.30;92.00;;;;;;5042168;28;20043;-61
2023/06/11 09:50:06;;;;;;;7.65;5.47;;;28.30;91.90;;;;;;5059706;28;20036;-59
2023/06/11 09:52:34;;;;;;;9.90;5.40;;;28.40;91.80;;;;;;5059671;28;20048;-60
2023/06/11 09:55:00;;;;;;;7.30;5.50;;;28.50;91.80;;;;;;5060998;28;20542;-60
2023/06/11 09:57:28;;;;;;;7.18;5.43;;;28.60;91.40;;;;;;5060268;28;20495;-59
2023/06/11 09:59:55;;;;;;;9.05;5.75;;;28.70;91.30;;;;;;5059235;28;20044;-62
2023/06/11 10:02:20;;;;;;;8.25;5.50;;;28.70;91.40;;;;;;5061979;28;20044;-60
2023/06/11 10:04:46;;;;;;;9.00;5.72;;;28.80;91.30;;;;;;5042315;28;20044;-61
2023/06/11 10:07:12;;;;;;;9.10;5.40;;;28.80;90.90;;;;;;5060741;28;20088;-60
2023/06/11 10:09:41;;;;;;;8.35;5.28;;;28.90;91.10;;;;;;5059481;28;20514;-60
2023/06/11 10:12:07;;;;;;;7.03;5.40;;;28.80;91.10;;;;;;5059663;28;20126;-60
2023/06/11 10:14:34;;;;;;;9.60;5.25;;;28.90;91.00;;;;;;5060381;28;20056;-59
2023/06/11 10:17:02;;;;;;;7.50;5.30;;;28.80;90.70;;;;;;5059323;28;20373;-59
2023/06/11 10:19:36;;;;;;;12.32;5.30;;;28.80;90.50;;;;;;5054316;28;20048;-62
2023/06/11 10:22:02;;;;;;;7.82;5.00;;;28.80;90.40;;;;;;5057731;28;20375;-60
2023/06/11 10:24:28;;;;;;;9.48;5.53;;;28.90;90.40;;;;;;5054957;28;20071;-60
2023/06/11 10:27:14;;;;;;;8.30;5.03;;;29.00;90.20;;;;;;5056135;28;20047;-60
2023/06/11 10:29:41;;;;;;;7.93;4.82;;;29.10;90.00;;;;;;5054365;28;20045;-59
2023/06/11 10:32:17;;;;;;;10.10;5.30;;;29.20;89.00;;;;;;5055158;28;20036;-60
2023/06/11 10:34:44;;;;;;;9.02;4.93;;;29.30;87.90;;;;;;5055384;28;20066;-60
2023/06/11 10:37:11;;;;;;;7.28;4.80;;;29.20;88.00;;;;;;5051377;28;20045;-59
2023/06/11 10:39:51;;;;;;;5.65;4.60;;;29.20;88.10;;;;;;5055873;28;20398;-60
2023/06/11 10:42:26;;;;;;;5.63;4.07;;;29.20;86.50;;;;;;5055913;28;20072;-60
2023/06/11 10:44:59;;;;;;;8.52;4.93;;;29.40;86.60;;;;;;5054873;28;20067;-61
2023/06/11 10:47:26;;;;;;;7.60;4.50;;;29.50;86.40;;;;;;5055875;28;20356;-59
2023/06/11 10:49:53;;;;;;;6.55;4.60;;;29.60;86.50;;;;;;5055185;28;20044;-59
2023/06/11 10:52:19;;;;;;;6.93;4.57;;;29.80;87.00;;;;;;5053503;28;20128;-59
2023/06/11 10:54:49;;;;;;;8.18;4.28;;;30.00;85.80;;;;;;5054350;28;20115;-59
2023/06/11 10:57:15;;;;;;;7.70;4.35;;;30.00;84.30;;;;;;5055749;28;20108;-60
2023/06/11 10:59:41;;;;;;;6.97;4.43;;;30.10;85.20;;;;;;5064093;28;20603;-59
2023/06/11 11:02:13;;;;;;;6.10;3.75;;;30.10;84.00;;;;;;5070014;28;20032;-61
2023/06/11 11:04:59;;;;;;;5.25;4.15;;;30.20;82.30;;;;;;5070174;28;20887;-59
2023/06/11 11:07:33;;;;;;;5.70;4.00;;;30.30;81.40;;;;;;5067599;28;20051;-61
2023/06/11 11:10:00;;;;;;;7.45;4.10;;;30.30;82.40;;;;;;5065408;28;20036;-59
2023/06/11 11:12:25;;;;;;;6.05;4.20;;;30.30;82.50;;;;;;5050147;28;20091;-59
2023/06/11 11:14:51;;;;;;;6.18;4.13;;;30.40;81.90;;;;;;5070852;28;20352;-59
2023/06/11 11:17:18;;;;;;;7.03;4.03;;;30.60;82.20;;;;;;5069829;28;20037;-60
2023/06/11 11:19:44;;;;;;;6.30;4.00;;;30.70;81.70;;;;;;5052344;28;20102;-59
2023/06/11 11:22:12;;;;;;;5.32;3.90;;;30.80;81.50;;;;;;5070595;28;20040;-59
2023/06/11 11:24:38;;;;;;;9.85;4.28;;;30.90;80.90;;;;;;5070559;28;20472;-61
2023/06/11 11:27:07;;;;;;;6.03;3.92;;;31.10;81.40;;;;;;5051505;28;20035;-59
2023/06/11 11:29:33;;;;;;;6.22;4.00;;;31.20;79.70;;;;;;5051365;28;20048;-62
2023/06/11 11:31:59;;;;;;;7.57;4.13;;;31.30;79.00;;;;;;5066557;28;20032;-60
2023/06/11 11:34:27;;;;;;;6.57;3.65;;;31.30;78.20;;;;;;5071434;28;20040;-61
2023/06/11 11:36:56;;;;;;;7.13;3.78;;;31.30;76.90;;;;;;5052319;28;20036;-61
2023/06/11 11:39:22;;;;;;;6.72;3.50;;;31.30;77.40;;;;;;5071446;28;20041;-59
2023/06/11 11:41:49;;;;;;;6.65;3.80;;;31.40;77.10;;;;;;5071841;28;20082;-58
2023/06/11 11:44:14;;;;;;;7.90;4.10;;;31.50;77.80;;;;;;5053552;28;20047;-59
2023/06/11 11:46:40;;;;;;;6.72;3.70;;;31.70;77.70;;;;;;5071984;28;20032;-59
2023/06/11 11:49:08;;;;;;;5.80;4.00;;;31.80;76.30;;;;;;5071611;28;20033;-59
2023/06/11 11:51:41;;;;;;;7.55;3.95;;;31.80;76.00;;;;;;5071437;28;20127;-60
2023/06/11 11:54:12;;;;;;;6.68;3.97;;;31.80;76.70;;;;;;5070888;28;20054;-61
2023/06/11 11:56:38;;;;;;;6.28;4.10;;;31.90;76.80;;;;;;5053775;28;20044;-59
2023/06/11 11:59:03;;;;;;;5.55;3.72;;;32.00;75.40;;;;;;5071233;28;20043;-58
2023/06/11 12:01:36;;;;;;;8.32;3.58;;;32.10;75.10;;;;;;5070162;28;20041;-61
2023/06/11 12:04:04;;;;;;;5.68;3.60;;;32.20;74.10;;;;;;5070937;28;20032;-60
2023/06/11 12:06:30;;;;;;;6.45;3.90;;;32.30;73.30;;;;;;5053560;28;20416;-58
2023/06/11 12:08:56;;;;;;;6.53;3.65;;;32.20;72.60;;;;;;5071278;28;20072;-61
2023/06/11 12:11:22;;;;;;;6.95;3.70;;;32.30;71.80;;;;;;5068180;28;20036;-59
2023/06/11 12:13:47;;;;;;;10.32;3.90;;;32.30;71.50;;;;;;5067674;28;20044;-60
2023/06/11 12:16:14;;;;;;;10.65;4.10;;;32.50;72.00;;;;;;5068187;28;20032;-59
2023/06/11 12:18:40;;;;;;;6.13;3.85;;;32.50;71.20;;;;;;5065940;28;20112;-59
2023/06/11 12:21:07;;;;;;;7.75;4.30;;;32.60;71.00;;;;;;5060558;28;20462;-59
2023/06/11 12:23:33;;;;;;;5.85;3.63;;;32.70;70.50;;;;;;5051570;28;20039;-59
2023/06/11 12:26:01;;;;;;;5.88;3.95;;;32.70;71.20;;;;;;5066088;28;20024;-60
2023/06/11 12:28:26;;;;;;;8.70;4.03;;;32.70;70.90;;;;;;5050221;28;20123;-59
2023/06/11 12:30:52;;;;;;;5.95;3.80;;;32.80;71.00;;;;;;5068764;28;20108;-59
2023/06/11 12:33:18;;;;;;;8.90;4.18;;;32.90;70.70;;;;;;5051072;28;20090;-61
2023/06/11 12:35:44;;;;;;;7.88;3.95;;;32.90;69.70;;;;;;5068828;28;20321;-60
2023/06/11 12:38:10;;;;;;;7.60;3.80;;;33.00;70.20;;;;;;5068991;28;20394;-59
2023/06/11 12:40:57;;;;;;;7.28;4.20;;;33.10;71.00;;;;;;5066786;28;20549;-60
2023/06/11 12:43:23;;;;;;;5.47;3.78;;;33.20;68.00;;;;;;5068122;28;20107;-60